Terminal Aerodrome Forecast
Issued by NWS

Home | Current Version | Previous Version | Text Only | Print | Product List | Glossary On
Versions: 1 2 3 4 5 6 7 8 9 10 11 12 13 14
000
FTUS43 KIND 270217 AAA
TAFBMG
TAF AMD
KBMG 270217Z 2702/2724 24010KT P6SM BKN040
     FM271200 14005KT P6SM BKN025
     FM271400 12005KT P6SM BKN045
     FM271800 16009KT 4SM SHRA BKN025
      AMD LTD TO CLD VIS AND WIND TIL 271300=

USA.gov is the U.S. government's official web portal to all federal, state and local government web resources and services.